createdAt,value
2022-10-05T00:02:28.737Z,5.88
2022-10-05T00:07:32.781Z,9.18
2022-10-05T00:12:38.068Z,3.72
2022-10-05T00:17:43.454Z,2.47
2022-10-05T00:22:47.611Z,15.85
2022-10-05T00:27:57.834Z,17.63
2022-10-05T00:33:01.775Z,8.30
2022-10-05T00:38:05.906Z,7.97
2022-10-05T00:43:29.656Z,3.72
2022-10-05T00:48:43.659Z,3.38
2022-10-05T00:53:54.787Z,2.60
2022-10-05T00:59:14.347Z,1.95
2022-10-05T01:04:25.799Z,2.83
2022-10-05T01:09:40.509Z,2.45
2022-10-05T01:14:54.397Z,2.38
2022-10-05T01:20:21.404Z,2.28
2022-10-05T01:25:31.438Z,2.47
2022-10-05T01:30:45.853Z,2.55
2022-10-05T01:35:59.226Z,2.97
2022-10-05T01:41:13.609Z,2.60
2022-10-05T01:46:26.309Z,2.17
2022-10-05T01:51:41.835Z,2.72
2022-10-05T01:56:56.094Z,2.38
2022-10-05T02:02:05.540Z,2.10
2022-10-05T02:12:24.537Z,2.20
2022-10-05T02:17:37.725Z,3.60
2022-10-05T02:22:47.796Z,2.17
2022-10-05T02:27:58.900Z,2.30
2022-10-05T02:33:11.737Z,2.30
2022-10-05T02:38:24.684Z,2.65
2022-10-05T02:43:39.025Z,2.20
2022-10-05T02:48:56.542Z,3.20
2022-10-05T02:54:12.700Z,5.63
2022-10-05T02:59:23.140Z,4.22
2022-10-05T03:04:39.848Z,3.60
2022-10-05T03:09:55.721Z,2.92
2022-10-05T03:15:16.487Z,2.72
2022-10-05T03:20:32.941Z,3.35
2022-10-05T03:25:57.211Z,6.18
2022-10-05T03:31:05.295Z,6.35
2022-10-05T03:36:21.585Z,4.03
2022-10-05T03:41:32.758Z,4.22
2022-10-05T03:46:50.642Z,2.10
2022-10-05T03:52:03.277Z,3.28
2022-10-05T03:57:12.582Z,2.72
2022-10-05T04:02:24.034Z,2.60
2022-10-05T04:07:40.838Z,2.40
2022-10-05T04:12:49.584Z,3.67
2022-10-05T04:17:58.751Z,3.72
2022-10-05T04:23:14.226Z,2.60
2022-10-05T04:28:29.626Z,4.63
2022-10-05T04:33:36.762Z,4.22
2022-10-05T04:39:04.773Z,4.15
2022-10-05T04:44:25.470Z,3.65
2022-10-05T04:49:45.732Z,4.38
2022-10-05T04:55:05.224Z,7.78
2022-10-05T05:00:23.934Z,5.70
2022-10-05T05:05:58.609Z,3.83
2022-10-05T05:11:24.395Z,2.80
2022-10-05T05:16:37.032Z,10.35
2022-10-05T05:21:50.938Z,9.13
2022-10-05T05:27:10.351Z,7.10
2022-10-05T05:32:27.162Z,5.68
2022-10-05T05:37:37.067Z,6.05
2022-10-05T05:42:53.073Z,8.00
2022-10-05T05:48:00.571Z,8.27
2022-10-05T05:53:12.184Z,5.15
2022-10-05T05:58:23.954Z,5.65
2022-10-05T06:03:36.458Z,5.45
2022-10-05T06:08:43.518Z,6.50
2022-10-05T06:14:13.981Z,5.40
2022-10-05T06:19:21.414Z,4.30
2022-10-05T06:24:31.047Z,5.70
2022-10-05T06:29:59.541Z,5.30
2022-10-05T06:35:16.835Z,6.88
2022-10-05T06:40:35.222Z,6.22
2022-10-05T06:45:54.126Z,4.82
2022-10-05T06:51:23.399Z,3.78
2022-10-05T06:56:57.533Z,2.58
2022-10-05T07:02:10.707Z,3.33
2022-10-05T07:07:23.468Z,2.33
2022-10-05T07:12:49.772Z,3.13
2022-10-05T07:18:10.078Z,2.67
2022-10-05T07:23:26.340Z,2.00
2022-10-05T07:28:37.994Z,2.00
2022-10-05T07:33:51.319Z,1.90
2022-10-05T07:39:02.608Z,1.67
2022-10-05T07:44:14.689Z,1.85
2022-10-05T07:49:34.026Z,1.65
2022-10-05T07:54:48.836Z,1.77
2022-10-05T08:00:00.040Z,1.83
2022-10-05T08:05:13.250Z,1.67
2022-10-05T08:10:27.075Z,2.20
2022-10-05T08:15:35.757Z,1.92
2022-10-05T08:20:48.555Z,1.83
2022-10-05T08:26:06.735Z,1.73
2022-10-05T08:31:20.767Z,2.28
2022-10-05T08:36:44.869Z,1.70
2022-10-05T08:42:14.297Z,1.70
2022-10-05T08:47:32.782Z,1.40
2022-10-05T08:52:57.070Z,1.70
2022-10-05T08:58:21.757Z,1.40
2022-10-05T09:03:44.877Z,1.40
2022-10-05T09:09:17.365Z,1.17
2022-10-05T09:14:30.820Z,1.65
2022-10-05T09:19:53.718Z,1.75
2022-10-05T09:25:04.930Z,1.10
2022-10-05T09:30:24.607Z,1.10
2022-10-05T09:35:52.580Z,0.90
2022-10-05T09:41:31.172Z,1.35
2022-10-05T09:47:06.902Z,1.15
2022-10-05T09:52:21.313Z,1.00
2022-10-05T09:57:53.426Z,1.35
2022-10-05T10:03:21.483Z,0.68
2022-10-05T10:08:42.195Z,0.90
2022-10-05T10:14:07.126Z,0.80
2022-10-05T10:19:33.236Z,0.80
2022-10-05T10:25:06.228Z,0.95
2022-10-05T10:30:39.248Z,0.95
2022-10-05T10:35:54.804Z,0.68
2022-10-05T10:41:43.889Z,0.70
2022-10-05T10:47:04.674Z,0.95
2022-10-05T10:52:26.970Z,0.90
2022-10-05T10:57:48.058Z,0.60
2022-10-05T11:03:22.231Z,0.52
2022-10-05T11:08:56.385Z,1.23
2022-10-05T11:14:34.892Z,0.63
2022-10-05T11:20:03.514Z,0.63
2022-10-05T11:25:44.513Z,0.70
2022-10-05T11:36:37.803Z,0.68
2022-10-05T11:42:29.635Z,0.82
2022-10-05T11:47:43.362Z,0.68
2022-10-05T11:52:55.447Z,0.60
2022-10-05T11:58:02.833Z,0.80
2022-10-05T12:03:30.089Z,0.70
2022-10-05T12:08:45.480Z,0.55
2022-10-05T12:13:56.107Z,0.80
2022-10-05T12:19:04.883Z,0.50
2022-10-05T12:29:24.911Z,0.60
2022-10-05T12:34:47.877Z,0.52
2022-10-05T12:39:59.488Z,0.50
2022-10-05T12:45:21.519Z,0.70
2022-10-05T12:50:29.662Z,1.13
2022-10-05T12:55:43.958Z,0.60
2022-10-05T13:00:57.399Z,0.70
2022-10-05T13:06:11.284Z,0.65
2022-10-05T13:11:23.204Z,0.65
2022-10-05T13:16:36.198Z,0.70
2022-10-05T13:21:57.594Z,0.70
2022-10-05T13:27:17.000Z,0.90
2022-10-05T13:32:25.518Z,0.82
2022-10-05T13:37:40.947Z,0.55
2022-10-05T13:42:53.841Z,0.63
2022-10-05T13:48:13.271Z,0.68
2022-10-05T13:53:24.634Z,0.85
2022-10-05T13:58:36.509Z,1.27
2022-10-05T14:03:41.238Z,0.65
2022-10-05T14:08:52.843Z,0.75
2022-10-05T14:14:14.892Z,0.70
2022-10-05T14:19:21.973Z,0.88
2022-10-05T14:24:46.108Z,0.95
2022-10-05T14:30:03.096Z,2.50
2022-10-05T14:35:15.975Z,2.50
2022-10-05T14:40:27.816Z,1.30
2022-10-05T14:45:33.933Z,1.83
2022-10-05T14:50:55.209Z,2.33
2022-10-05T14:56:28.009Z,1.20
2022-10-05T15:01:36.764Z,1.58
2022-10-05T15:06:44.570Z,1.67
2022-10-05T15:11:52.684Z,1.10
2022-10-05T15:17:03.295Z,1.10
2022-10-05T15:22:23.652Z,1.85
2022-10-05T15:27:34.575Z,1.20
2022-10-05T15:32:49.956Z,1.33
2022-10-05T15:38:00.271Z,1.98
2022-10-05T15:43:07.330Z,3.30
2022-10-05T15:48:20.267Z,3.95
2022-10-05T15:53:33.333Z,3.83
2022-10-05T15:58:55.112Z,2.53
2022-10-05T16:04:05.011Z,3.15
2022-10-05T16:09:23.321Z,3.10
2022-10-05T16:15:00.244Z,4.47
2022-10-05T16:20:26.643Z,5.82
2022-10-05T16:25:43.326Z,5.90
2022-10-05T16:30:59.121Z,12.18
2022-10-05T16:36:14.202Z,65.07
2022-10-05T16:41:28.709Z,32.75
2022-10-05T16:46:42.173Z,11.05
2022-10-05T16:51:57.044Z,4.72
2022-10-05T16:57:15.255Z,8.77
2022-10-05T17:02:30.289Z,11.45
2022-10-05T17:07:49.733Z,9.82
2022-10-05T17:13:07.623Z,8.07
2022-10-05T17:18:27.481Z,6.22
2022-10-05T17:23:54.038Z,7.28
2022-10-05T17:29:02.218Z,5.82
2022-10-05T17:34:27.705Z,5.50
2022-10-05T17:39:56.256Z,4.47
2022-10-05T17:45:06.948Z,4.07
2022-10-05T17:50:31.538Z,3.08
2022-10-05T17:55:46.511Z,2.90
2022-10-05T18:01:15.060Z,3.10
2022-10-05T18:06:48.172Z,2.53
2022-10-05T18:12:12.822Z,2.15
2022-10-05T18:17:38.091Z,2.85
2022-10-05T18:22:47.008Z,3.45
2022-10-05T18:28:06.821Z,3.50
2022-10-05T18:38:54.057Z,4.63
2022-10-05T18:44:19.756Z,4.82
2022-10-05T18:49:38.156Z,4.38
2022-10-05T18:54:58.064Z,4.18
2022-10-05T19:00:12.359Z,6.60
2022-10-05T19:05:48.456Z,8.90
2022-10-05T19:10:57.864Z,7.25
2022-10-05T19:16:22.625Z,3.38
2022-10-05T19:21:32.072Z,4.20
2022-10-05T19:26:57.691Z,3.33
2022-10-05T19:32:10.213Z,2.83
2022-10-05T19:37:21.139Z,5.13
2022-10-05T19:42:52.912Z,4.10
2022-10-05T19:48:16.322Z,3.80
2022-10-05T19:53:27.463Z,2.70
2022-10-05T20:03:43.715Z,2.80
2022-10-05T20:08:49.548Z,3.72
2022-10-05T20:14:19.980Z,3.45
2022-10-05T20:19:54.359Z,3.33
2022-10-05T20:25:00.317Z,2.38
2022-10-05T20:30:06.001Z,2.75
2022-10-05T20:35:12.788Z,2.58
2022-10-05T20:40:19.852Z,2.42
2022-10-05T20:45:32.191Z,2.28
2022-10-05T20:50:39.909Z,2.90
2022-10-05T20:55:45.341Z,2.40
2022-10-05T21:01:07.824Z,3.13
2022-10-05T21:06:16.431Z,3.50
2022-10-05T21:11:20.533Z,2.38
2022-10-05T21:16:27.025Z,2.42
2022-10-05T21:21:32.714Z,3.42
2022-10-05T21:26:37.549Z,2.35
2022-10-05T21:31:42.075Z,2.90
2022-10-05T21:36:49.325Z,2.50
2022-10-05T21:41:53.965Z,1.90
2022-10-05T21:46:58.132Z,2.05
2022-10-05T21:52:05.669Z,2.58
2022-10-05T21:57:13.284Z,3.33
2022-10-05T22:02:17.280Z,3.00
2022-10-05T22:29:37.772Z,3.13
2022-10-05T22:34:41.773Z,2.47
2022-10-05T22:39:45.915Z,2.85
2022-10-05T22:44:51.503Z,2.08
2022-10-05T22:49:55.801Z,2.72
2022-10-05T22:55:00.089Z,2.15
2022-10-05T23:00:06.411Z,2.65
2022-10-05T23:05:14.117Z,2.22
2022-10-05T23:10:19.556Z,2.38
2022-10-05T23:15:25.184Z,2.30
2022-10-05T23:20:29.215Z,1.90
2022-10-05T23:25:33.387Z,2.47
2022-10-05T23:30:39.197Z,1.83
2022-10-05T23:35:43.222Z,2.33
2022-10-05T23:40:47.689Z,1.88
2022-10-05T23:45:53.971Z,2.17
2022-10-05T23:50:58.288Z,2.55
2022-10-05T23:56:02.355Z,2.28
